Time;durP1;ratioP1;P1;durP2;ratioP2;P2;SDS_P1;SDS_P2;PMS_P1;PMS_P2;Temp;Humidity;BMP_temperature;BMP_pressure;BME280_temperature;BME280_humidity;BME280_pressure;Samples;Min_cycle;Max_cycle;Signal;HPM_P1;HPM_P2
2021/07/06 00:01:41;;;;;;;8.57;8.07;;;23.70;96.30;;;;;;3535805;40;20466;-58
2021/07/06 00:04:08;;;;;;;9.73;9.23;;;23.70;96.20;;;;;;3534504;40;20865;-58
2021/07/06 00:06:38;;;;;;;8.40;7.93;;;23.70;96.30;;;;;;3535331;40;20541;-59
2021/07/06 00:09:32;;;;;;;9.60;9.07;;;23.70;96.30;;;;;;3520882;40;20479;-58
2021/07/06 00:11:59;;;;;;;9.07;8.50;;;23.70;96.30;;;;;;3535312;40;20478;-57
2021/07/06 00:14:27;;;;;;;9.20;8.60;;;23.70;96.30;;;;;;3535753;40;20462;-58
2021/07/06 00:16:54;;;;;;;8.70;8.23;;;23.70;96.20;;;;;;3535755;40;20462;-59
2021/07/06 00:19:21;;;;;;;9.33;8.83;;;23.70;96.20;;;;;;3535298;40;20465;-57
2021/07/06 00:21:49;;;;;;;9.43;8.93;;;23.70;96.20;;;;;;3535622;40;20478;-57
2021/07/06 00:24:16;;;;;;;8.20;7.90;;;23.80;96.20;;;;;;3535882;40;20479;-58
2021/07/06 00:26:45;;;;;;;9.20;8.70;;;23.70;96.10;;;;;;3535723;40;20462;-58
2021/07/06 00:29:12;;;;;;;8.50;7.97;;;23.70;96.10;;;;;;3534733;40;20482;-59
2021/07/06 00:31:39;;;;;;;7.97;7.67;;;23.70;96.20;;;;;;3535145;40;20493;-58
2021/07/06 00:34:06;;;;;;;8.50;8.10;;;23.70;96.10;;;;;;3536074;40;20717;-58
2021/07/06 00:36:37;;;;;;;8.90;8.20;;;23.70;96.10;;;;;;3536598;40;20471;-58
2021/07/06 00:39:05;;;;;;;8.73;8.30;;;23.70;96.10;;;;;;3534863;40;20502;-58
2021/07/06 00:41:33;;;;;;;8.17;7.77;;;23.70;96.00;;;;;;3536048;40;20485;-58
2021/07/06 00:44:05;;;;;;;8.00;7.60;;;23.70;96.10;;;;;;3534790;40;21218;-58
2021/07/06 00:46:33;;;;;;;8.83;8.33;;;23.70;96.00;;;;;;3525928;40;20466;-59
2021/07/06 00:49:00;;;;;;;8.77;8.30;;;23.70;96.00;;;;;;3535128;40;20854;-58
2021/07/06 00:51:27;;;;;;;8.40;8.00;;;23.70;96.00;;;;;;3534807;40;20449;-58
2021/07/06 00:53:54;;;;;;;8.00;7.60;;;23.70;96.00;;;;;;3533824;40;20474;-59
2021/07/06 00:56:22;;;;;;;8.23;7.93;;;23.70;96.00;;;;;;3526266;40;20467;-59
2021/07/06 00:58:49;;;;;;;8.40;8.10;;;23.70;96.00;;;;;;3534620;40;20474;-59
2021/07/06 01:01:17;;;;;;;8.43;7.93;;;23.70;96.00;;;;;;3534057;40;20918;-59
2021/07/06 01:03:45;;;;;;;8.70;8.20;;;23.70;95.90;;;;;;3534160;40;20471;-59
2021/07/06 01:06:13;;;;;;;8.87;8.47;;;23.70;95.90;;;;;;3535171;40;20454;-58
2021/07/06 01:08:40;;;;;;;8.43;7.90;;;23.70;95.90;;;;;;3535445;40;20467;-59
2021/07/06 01:11:08;;;;;;;9.00;8.60;;;23.70;95.90;;;;;;3536182;40;20708;-59
2021/07/06 01:13:35;;;;;;;9.53;9.00;;;23.70;95.90;;;;;;3536603;40;20478;-58
2021/07/06 01:16:03;;;;;;;9.63;9.13;;;23.70;95.80;;;;;;3527443;40;20463;-59
2021/07/06 01:18:31;;;;;;;9.23;8.77;;;23.70;95.80;;;;;;3527479;40;20452;-58
2021/07/06 01:20:59;;;;;;;9.10;8.70;;;23.60;95.60;;;;;;3531299;40;20474;-58
2021/07/06 01:23:29;;;;;;;10.00;9.40;;;23.60;95.70;;;;;;3536864;40;20474;-58
2021/07/06 01:25:59;;;;;;;10.03;9.30;;;23.70;95.70;;;;;;3535255;40;20482;-57
2021/07/06 01:28:26;;;;;;;8.97;8.37;;;23.70;95.70;;;;;;3535789;40;20459;-58
2021/07/06 01:30:54;;;;;;;8.73;8.27;;;23.70;95.70;;;;;;3535986;40;20482;-59
2021/07/06 01:33:22;;;;;;;8.90;8.30;;;23.60;95.70;;;;;;3536768;40;20478;-59
2021/07/06 01:35:51;;;;;;;9.30;8.67;;;23.60;95.70;;;;;;3536635;40;20510;-58
2021/07/06 01:38:18;;;;;;;9.73;9.23;;;23.60;95.60;;;;;;3535976;40;20503;-58
2021/07/06 01:40:47;;;;;;;9.70;9.20;;;23.60;95.60;;;;;;3536732;40;20474;-57
2021/07/06 01:43:15;;;;;;;9.37;8.77;;;23.60;95.50;;;;;;3534962;40;20474;-59
2021/07/06 01:45:43;;;;;;;9.90;9.40;;;23.60;95.50;;;;;;3535940;40;20533;-58
2021/07/06 01:48:10;;;;;;;9.60;9.20;;;23.60;95.50;;;;;;3527672;40;20455;-59
2021/07/06 01:50:40;;;;;;;9.33;8.70;;;23.60;95.40;;;;;;3536087;40;21003;-58
2021/07/06 01:53:09;;;;;;;9.90;9.30;;;23.60;95.50;;;;;;3536273;40;20467;-58
2021/07/06 01:55:39;;;;;;;10.10;9.50;;;23.60;95.50;;;;;;3536877;40;20569;-57
2021/07/06 01:58:09;;;;;;;9.90;9.30;;;23.70;95.50;;;;;;3537046;40;20458;-59
2021/07/06 02:00:40;;;;;;;10.23;9.60;;;23.60;95.40;;;;;;3536542;40;20564;-58
2021/07/06 02:03:10;;;;;;;8.80;8.40;;;23.60;95.30;;;;;;3537044;40;20462;-59
2021/07/06 02:05:39;;;;;;;9.57;9.00;;;23.60;95.40;;;;;;3536274;40;20478;-59
2021/07/06 02:08:07;;;;;;;9.53;8.90;;;23.60;95.40;;;;;;3536747;40;20744;-58
2021/07/06 02:10:36;;;;;;;9.50;8.80;;;23.60;95.40;;;;;;3527079;40;20486;-57
2021/07/06 02:13:08;;;;;;;9.03;8.63;;;23.60;95.40;;;;;;3526401;40;20459;-59
2021/07/06 02:15:36;;;;;;;10.00;9.40;;;23.60;95.30;;;;;;3526954;40;21022;-58
2021/07/06 02:18:03;;;;;;;9.87;9.23;;;23.60;95.30;;;;;;3530613;40;20478;-58
2021/07/06 02:20:30;;;;;;;10.00;9.40;;;23.60;95.30;;;;;;3536664;40;20470;-58
2021/07/06 02:22:58;;;;;;;10.10;9.50;;;23.60;95.30;;;;;;3527058;40;20482;-59
2021/07/06 02:25:25;;;;;;;9.23;8.73;;;23.60;95.30;;;;;;3536934;40;20663;-57
2021/07/06 02:27:53;;;;;;;9.57;9.07;;;23.60;95.30;;;;;;3536198;40;20459;-58
2021/07/06 02:30:24;;;;;;;9.20;8.80;;;23.60;95.30;;;;;;3536362;40;20972;-58
2021/07/06 02:32:53;;;;;;;9.20;8.80;;;23.60;95.30;;;;;;3535862;40;20557;-59
2021/07/06 02:35:21;;;;;;;9.60;9.10;;;23.60;95.30;;;;;;3527497;40;20462;-57
2021/07/06 02:37:48;;;;;;;10.20;9.60;;;23.60;95.30;;;;;;3535233;40;20463;-57
2021/07/06 02:40:17;;;;;;;9.43;8.97;;;23.60;95.30;;;;;;3535734;40;20946;-58
2021/07/06 02:42:44;;;;;;;10.40;9.80;;;23.60;95.20;;;;;;3535430;40;20514;-58
2021/07/06 02:45:14;;;;;;;10.40;9.80;;;23.60;95.20;;;;;;3534432;40;20463;-58
2021/07/06 02:47:43;;;;;;;10.30;9.60;;;23.60;95.20;;;;;;3536455;40;20446;-59
2021/07/06 02:50:12;;;;;;;10.43;9.83;;;23.60;95.10;;;;;;3533224;40;20483;-57
2021/07/06 02:52:39;;;;;;;9.30;8.80;;;23.60;95.10;;;;;;3535655;40;20493;-58
2021/07/06 02:55:08;;;;;;;10.20;9.60;;;23.60;95.20;;;;;;3535972;40;20463;-59
2021/07/06 02:57:35;;;;;;;9.70;9.20;;;23.60;95.20;;;;;;3536063;40;20477;-59
2021/07/06 03:00:11;;;;;;;10.40;9.90;;;23.60;95.10;;;;;;3535595;40;20466;-58
2021/07/06 03:02:39;;;;;;;10.97;10.37;;;23.60;95.20;;;;;;3535017;40;20470;-59
2021/07/06 03:05:10;;;;;;;11.33;10.73;;;23.60;95.10;;;;;;3527055;40;20477;-58
2021/07/06 03:07:38;;;;;;;11.90;11.10;;;23.60;95.10;;;;;;3535789;40;20854;-58
2021/07/06 03:10:07;;;;;;;10.87;10.27;;;23.60;95.10;;;;;;3535760;40;20901;-58
2021/07/06 03:12:34;;;;;;;12.10;11.10;;;23.60;95.00;;;;;;3534966;40;20474;-59
2021/07/06 03:15:02;;;;;;;11.03;10.43;;;23.60;95.00;;;;;;3536182;40;20447;-55
2021/07/06 03:17:30;;;;;;;10.93;10.43;;;23.60;95.00;;;;;;3536020;40;20514;-59
2021/07/06 03:19:57;;;;;;;11.97;11.23;;;23.50;95.00;;;;;;3534904;40;20462;-59
2021/07/06 03:22:26;;;;;;;11.23;10.67;;;23.50;95.00;;;;;;3534766;40;20578;-58
2021/07/06 03:24:53;;;;;;;11.37;10.50;;;23.60;95.00;;;;;;3535126;40;20479;-59
2021/07/06 03:27:21;;;;;;;11.23;10.73;;;23.60;94.90;;;;;;3535080;40;20549;-58
2021/07/06 03:29:48;;;;;;;10.60;10.07;;;23.50;94.90;;;;;;3534964;40;20469;-58
2021/07/06 03:32:15;;;;;;;10.60;10.00;;;23.50;95.20;;;;;;3534530;40;20486;-58
2021/07/06 03:34:42;;;;;;;11.20;10.50;;;23.50;94.80;;;;;;3535056;40;20454;-58
2021/07/06 03:37:10;;;;;;;11.27;10.77;;;23.50;94.90;;;;;;3535786;40;20875;-58
2021/07/06 03:39:39;;;;;;;11.33;10.60;;;23.50;94.80;;;;;;3534160;40;20553;-58
2021/07/06 03:42:08;;;;;;;10.57;10.07;;;23.50;94.80;;;;;;3534737;40;20459;-57
2021/07/06 03:44:36;;;;;;;11.00;10.37;;;23.50;94.80;;;;;;3525212;40;20478;-59
2021/07/06 03:47:04;;;;;;;11.10;10.50;;;23.50;94.90;;;;;;3534416;40;20458;-58
2021/07/06 03:49:32;;;;;;;11.13;10.50;;;23.50;94.80;;;;;;3534628;40;20482;-57
2021/07/06 03:51:59;;;;;;;11.40;10.90;;;23.50;94.80;;;;;;3533596;40;20875;-58
2021/07/06 03:54:27;;;;;;;11.50;10.90;;;23.50;94.90;;;;;;3533560;40;20483;-58
2021/07/06 03:56:55;;;;;;;12.93;12.33;;;23.50;94.80;;;;;;3533496;40;20455;-58
2021/07/06 03:59:22;;;;;;;11.33;10.83;;;23.50;94.80;;;;;;3534361;40;20858;-59
2021/07/06 04:01:50;;;;;;;11.80;11.20;;;23.50;94.80;;;;;;3534482;40;20459;-57
2021/07/06 04:04:18;;;;;;;11.20;10.70;;;23.50;94.80;;;;;;3525312;40;20553;-59
2021/07/06 04:06:45;;;;;;;11.70;11.03;;;23.50;94.80;;;;;;3534179;40;20466;-58
2021/07/06 04:09:13;;;;;;;11.73;11.13;;;23.50;94.70;;;;;;3534563;40;20558;-58
2021/07/06 04:11:40;;;;;;;11.43;10.93;;;23.50;94.70;;;;;;3533959;40;20474;-58
2021/07/06 04:14:10;;;;;;;11.83;11.13;;;23.50;94.70;;;;;;3532687;40;20485;-58
2021/07/06 04:16:37;;;;;;;11.40;10.80;;;23.50;94.70;;;;;;3531833;40;20490;-59
2021/07/06 04:19:06;;;;;;;12.10;11.30;;;23.50;94.70;;;;;;3533123;40;20574;-57
2021/07/06 04:21:33;;;;;;;11.60;11.10;;;23.50;94.70;;;;;;3533508;40;20467;-58
2021/07/06 04:24:01;;;;;;;12.43;11.50;;;23.50;94.70;;;;;;3534356;40;20585;-57
2021/07/06 04:26:29;;;;;;;11.97;11.37;;;23.50;94.70;;;;;;3533344;40;20440;-58
2021/07/06 04:28:56;;;;;;;11.87;11.23;;;23.50;94.70;;;;;;3531947;40;20471;-59
2021/07/06 04:31:24;;;;;;;13.07;12.07;;;23.50;94.60;;;;;;3531604;40;20455;-57
2021/07/06 04:33:51;;;;;;;12.00;11.20;;;23.50;94.60;;;;;;3532106;40;20463;-59
2021/07/06 04:36:19;;;;;;;12.40;11.60;;;23.50;94.60;;;;;;3530840;40;20490;-58
2021/07/06 04:38:46;;;;;;;12.20;11.60;;;23.50;94.60;;;;;;3539710;40;20478;-58
2021/07/06 04:41:13;;;;;;;12.03;11.43;;;23.50;94.60;;;;;;3531937;40;20533;-59
2021/07/06 04:43:41;;;;;;;12.20;11.43;;;23.50;94.60;;;;;;3530422;40;20538;-58
2021/07/06 04:46:08;;;;;;;12.07;11.57;;;23.50;94.60;;;;;;3531923;40;20454;-58
2021/07/06 04:48:37;;;;;;;11.90;11.30;;;23.60;94.70;;;;;;3533620;40;20539;-58
2021/07/06 04:51:06;;;;;;;11.23;10.73;;;23.60;94.70;;;;;;3533745;40;20479;-59
2021/07/06 04:53:35;;;;;;;12.17;11.50;;;23.60;94.70;;;;;;3524862;40;20486;-59
2021/07/06 04:56:03;;;;;;;11.37;10.67;;;23.60;94.70;;;;;;3522814;40;20467;-58
2021/07/06 04:58:30;;;;;;;11.03;10.53;;;23.60;94.70;;;;;;3522550;40;20476;-57
2021/07/06 05:00:58;;;;;;;11.93;11.37;;;23.60;94.70;;;;;;3520961;40;20493;-58
2021/07/06 05:03:25;;;;;;;12.30;11.80;;;23.60;94.70;;;;;;3529797;40;20573;-58
2021/07/06 05:05:54;;;;;;;11.30;10.80;;;23.60;94.70;;;;;;3530108;40;20545;-56
2021/07/06 05:08:21;;;;;;;11.90;11.30;;;23.60;94.80;;;;;;3529120;40;20486;-57
2021/07/06 05:10:49;;;;;;;11.47;10.60;;;23.60;94.80;;;;;;3527794;40;20462;-59
2021/07/06 05:13:16;;;;;;;12.00;11.30;;;23.60;94.80;;;;;;3530157;40;20909;-58
2021/07/06 05:15:44;;;;;;;11.40;10.80;;;23.70;94.90;;;;;;3529929;40;20474;-58
2021/07/06 05:18:12;;;;;;;10.90;10.40;;;23.70;94.80;;;;;;3528957;40;20542;-58
2021/07/06 05:20:39;;;;;;;12.00;11.40;;;23.70;94.90;;;;;;3528363;40;20474;-58
2021/07/06 05:23:08;;;;;;;11.90;11.30;;;23.70;94.90;;;;;;3528989;40;20455;-59
2021/07/06 05:25:35;;;;;;;11.20;10.70;;;23.70;94.90;;;;;;3528408;40;20490;-57
2021/07/06 05:28:03;;;;;;;10.87;10.27;;;23.70;95.20;;;;;;3526397;40;20463;-58
2021/07/06 05:30:30;;;;;;;11.60;10.90;;;23.70;95.00;;;;;;3527131;40;20455;-58
2021/07/06 05:32:58;;;;;;;11.70;11.00;;;23.70;94.90;;;;;;3528358;40;20497;-59
2021/07/06 05:35:25;;;;;;;11.67;11.07;;;23.70;95.00;;;;;;3528958;40;20466;-58
2021/07/06 05:37:52;;;;;;;11.47;10.97;;;23.70;95.00;;;;;;3526115;40;20477;-59
2021/07/06 05:40:21;;;;;;;11.80;11.00;;;23.80;95.00;;;;;;3526310;40;20466;-58
2021/07/06 05:42:49;;;;;;;11.50;10.90;;;23.70;95.00;;;;;;3526242;40;20471;-58
2021/07/06 05:45:17;;;;;;;11.47;10.50;;;23.70;95.00;;;;;;3526930;40;20485;-59
2021/07/06 05:47:45;;;;;;;11.50;10.73;;;23.70;95.10;;;;;;3526352;40;20774;-58
2021/07/06 05:50:15;;;;;;;11.80;11.07;;;23.70;95.10;;;;;;3525444;40;21142;-57
2021/07/06 05:52:44;;;;;;;11.00;10.40;;;23.70;95.10;;;;;;3526259;40;20545;-59
2021/07/06 05:55:12;;;;;;;11.67;10.83;;;23.70;95.10;;;;;;3525569;40;20475;-59
2021/07/06 05:57:43;;;;;;;10.50;10.00;;;23.70;95.20;;;;;;3525169;40;20462;-59
2021/07/06 06:00:14;;;;;;;12.23;11.40;;;23.70;95.20;;;;;;3524100;40;20896;-58
2021/07/06 06:02:42;;;;;;;10.90;10.30;;;23.70;95.30;;;;;;3521248;40;20475;-59
2021/07/06 06:05:09;;;;;;;9.97;9.50;;;23.70;95.30;;;;;;3522290;40;21108;-59
2021/07/06 06:07:40;;;;;;;10.97;10.37;;;23.70;95.20;;;;;;3522817;40;20462;-58
2021/07/06 06:10:09;;;;;;;11.20;10.30;;;23.70;95.30;;;;;;3522009;40;20487;-58
2021/07/06 06:12:36;;;;;;;11.33;10.73;;;23.70;95.30;;;;;;3515555;40;20470;-57
2021/07/06 06:15:07;;;;;;;11.63;10.70;;;23.70;95.20;;;;;;3521503;40;20594;-61
2021/07/06 06:17:35;;;;;;;11.47;10.87;;;23.70;95.30;;;;;;3520690;40;20750;-59
2021/07/06 06:20:03;;;;;;;11.17;10.00;;;23.70;98.20;;;;;;3517702;40;20475;-59
2021/07/06 06:22:31;;;;;;;10.87;10.23;;;23.50;99.20;;;;;;3518445;40;20491;-59
2021/07/06 06:24:58;;;;;;;10.00;9.60;;;23.40;99.90;;;;;;3518569;40;20487;-58
2021/07/06 06:27:25;;;;;;;10.53;9.73;;;23.40;99.90;;;;;;3519519;40;20786;-59
2021/07/06 06:29:52;;;;;;;9.93;9.37;;;23.40;99.90;;;;;;3518045;40;20454;-58
2021/07/06 06:32:23;;;;;;;10.40;9.43;;;23.40;99.90;;;;;;3516687;40;20469;-59
2021/07/06 06:34:50;;;;;;;9.37;8.77;;;23.50;99.90;;;;;;3517914;40;20506;-58
2021/07/06 06:37:18;;;;;;;9.07;8.67;;;23.50;99.90;;;;;;3517824;40;20785;-58
2021/07/06 06:39:45;;;;;;;9.40;8.80;;;23.50;99.90;;;;;;3509466;40;20474;-58
2021/07/06 06:42:12;;;;;;;8.70;8.23;;;23.60;99.90;;;;;;3516599;40;20458;-57
2021/07/06 06:44:39;;;;;;;9.73;9.33;;;23.60;99.60;;;;;;3519202;40;20466;-57
2021/07/06 06:47:08;;;;;;;9.23;8.73;;;23.70;99.30;;;;;;3515049;40;20468;-58
2021/07/06 06:49:36;;;;;;;9.30;8.90;;;23.70;99.00;;;;;;3517698;40;20590;-59
2021/07/06 06:52:07;;;;;;;8.80;8.50;;;23.80;98.80;;;;;;3513998;40;20518;-59
2021/07/06 06:54:34;;;;;;;9.37;8.97;;;23.80;98.60;;;;;;3516096;40;20531;-58
2021/07/06 06:57:01;;;;;;;8.70;8.30;;;23.80;98.50;;;;;;3515536;40;20485;-59
2021/07/06 06:59:29;;;;;;;8.53;8.13;;;23.80;98.20;;;;;;3515171;40;20572;-59
2021/07/06 07:04:38;;;;;;;8.70;8.30;;;23.90;98.00;;;;;;3517039;40;20765;-59
2021/07/06 07:07:06;;;;;;;8.43;8.13;;;23.90;98.10;;;;;;3517804;40;20483;-60
2021/07/06 07:09:33;;;;;;;8.20;7.83;;;23.90;97.90;;;;;;3517055;40;21354;-60
2021/07/06 07:12:00;;;;;;;8.80;8.40;;;23.90;97.60;;;;;;3519572;40;20475;-56
2021/07/06 07:14:27;;;;;;;10.77;10.17;;;23.90;97.40;;;;;;3518261;40;20508;-57
2021/07/06 07:16:54;;;;;;;8.30;8.00;;;23.90;97.30;;;;;;3513963;40;20664;-58
2021/07/06 07:19:22;;;;;;;8.20;7.80;;;23.90;97.20;;;;;;3521012;40;20470;-58
2021/07/06 07:21:50;;;;;;;8.37;8.07;;;23.90;97.00;;;;;;3518358;40;20491;-57
2021/07/06 07:24:18;;;;;;;8.70;8.40;;;23.90;97.00;;;;;;3519490;40;20721;-59
2021/07/06 07:26:45;;;;;;;9.20;8.30;;;23.90;96.90;;;;;;3517772;40;20790;-59
2021/07/06 07:29:12;;;;;;;8.27;7.97;;;24.00;96.80;;;;;;3518179;40;20447;-59
2021/07/06 07:31:39;;;;;;;7.87;7.67;;;24.00;96.80;;;;;;3518820;40;20498;-57
2021/07/06 07:34:07;;;;;;;8.20;8.00;;;24.00;96.70;;;;;;3517666;40;20881;-58
2021/07/06 07:36:34;;;;;;;8.50;8.20;;;24.00;96.70;;;;;;3518853;40;20479;-57
2021/07/06 07:39:05;;;;;;;8.30;8.10;;;24.00;96.70;;;;;;3518072;40;21183;-59
2021/07/06 07:41:32;;;;;;;8.40;8.10;;;24.00;96.70;;;;;;3518728;40;20578;-58
2021/07/06 07:43:59;;;;;;;8.40;8.10;;;24.00;96.60;;;;;;3506205;40;21006;-59
2021/07/06 07:46:28;;;;;;;8.60;8.30;;;24.00;96.60;;;;;;3512435;40;20474;-57
2021/07/06 07:48:56;;;;;;;8.60;8.30;;;24.00;96.50;;;;;;3516458;40;21418;-58
2021/07/06 07:51:23;;;;;;;8.50;8.17;;;24.00;96.50;;;;;;3515184;40;20466;-58
2021/07/06 07:53:50;;;;;;;8.50;8.20;;;24.00;96.50;;;;;;3517372;40;20471;-57
2021/07/06 07:56:19;;;;;;;8.10;7.80;;;24.00;96.50;;;;;;3517391;40;20462;-58
2021/07/06 07:58:46;;;;;;;7.73;7.53;;;24.00;96.40;;;;;;3514163;40;20485;-58
2021/07/06 08:01:13;;;;;;;8.27;7.90;;;24.00;96.40;;;;;;3516121;40;20538;-59
2021/07/06 08:03:40;;;;;;;7.80;7.50;;;24.00;96.40;;;;;;3516555;40;20463;-58
2021/07/06 08:06:08;;;;;;;7.97;7.67;;;24.00;96.40;;;;;;3516671;40;20559;-59
2021/07/06 08:08:35;;;;;;;8.87;8.57;;;24.00;96.30;;;;;;3516642;40;20920;-58
2021/07/06 08:11:03;;;;;;;10.90;8.13;;;24.00;96.30;;;;;;3514563;40;20463;-59
2021/07/06 08:13:33;;;;;;;8.40;7.70;;;24.00;96.20;;;;;;3514976;40;20521;-59
2021/07/06 08:16:04;;;;;;;8.80;8.40;;;24.00;96.20;;;;;;3514099;40;20499;-58
2021/07/06 08:18:31;;;;;;;9.00;8.57;;;24.10;96.20;;;;;;3512253;40;20486;-59
2021/07/06 08:21:00;;;;;;;8.87;8.43;;;24.10;96.20;;;;;;3509649;40;20470;-58
2021/07/06 08:23:27;;;;;;;8.57;8.27;;;24.10;96.10;;;;;;3512071;40;20719;-58
2021/07/06 08:25:55;;;;;;;8.73;8.50;;;24.10;96.10;;;;;;3510586;40;20466;-58
2021/07/06 08:28:23;;;;;;;9.20;8.90;;;24.10;96.10;;;;;;3515867;40;20475;-58
2021/07/06 08:30:52;;;;;;;8.83;8.47;;;24.10;96.10;;;;;;3516926;40;20499;-59
2021/07/06 08:33:20;;;;;;;8.80;8.50;;;24.10;96.10;;;;;;3515663;40;20824;-59
2021/07/06 08:35:47;;;;;;;9.07;8.77;;;24.10;96.10;;;;;;3507118;40;20494;-58
2021/07/06 08:38:17;;;;;;;8.40;8.20;;;24.10;96.10;;;;;;3516266;40;20463;-58
2021/07/06 08:40:44;;;;;;;9.20;8.90;;;24.10;96.20;;;;;;3512794;40;20561;-59
2021/07/06 08:43:15;;;;;;;9.20;8.90;;;24.10;96.20;;;;;;3516092;40;20462;-58
2021/07/06 08:45:43;;;;;;;8.30;8.10;;;24.10;96.20;;;;;;3516775;40;20921;-58
2021/07/06 08:48:12;;;;;;;8.47;8.27;;;24.10;96.30;;;;;;3512502;40;20482;-59
2021/07/06 08:50:39;;;;;;;7.80;7.60;;;24.10;96.30;;;;;;3515539;40;20482;-58
2021/07/06 08:53:07;;;;;;;8.40;8.10;;;24.10;96.30;;;;;;3515134;40;20474;-59
2021/07/06 08:55:34;;;;;;;8.57;8.37;;;24.10;96.40;;;;;;3507402;40;20483;-60
2021/07/06 08:58:02;;;;;;;8.33;7.97;;;24.10;96.40;;;;;;3512159;40;20471;-59
2021/07/06 09:00:30;;;;;;;8.67;8.37;;;24.10;96.50;;;;;;3511666;40;20450;-58
2021/07/06 09:03:00;;;;;;;8.20;7.90;;;24.10;96.60;;;;;;3515883;40;20464;-58
2021/07/06 09:05:31;;;;;;;8.20;7.67;;;24.20;96.90;;;;;;3516343;40;20917;-58
2021/07/06 09:07:59;;;;;;;7.87;7.57;;;24.20;96.60;;;;;;3516519;40;20459;-56
2021/07/06 09:10:28;;;;;;;8.30;8.00;;;24.20;96.60;;;;;;3514402;40;20509;-58
2021/07/06 09:12:55;;;;;;;7.83;7.60;;;24.20;96.70;;;;;;3514877;40;20475;-58
2021/07/06 09:15:26;;;;;;;8.50;8.10;;;24.20;96.70;;;;;;3513504;40;20494;-58
2021/07/06 09:18:16;;;;;;;8.90;8.60;;;24.20;96.70;;;;;;3502897;40;20495;-59
2021/07/06 09:21:03;;;;;;;8.00;7.70;;;24.20;96.70;;;;;;3513592;40;20474;-59
2021/07/06 09:23:33;;;;;;;8.10;7.80;;;24.20;96.80;;;;;;3515610;40;20557;-59
2021/07/06 09:26:32;;;;;;;9.27;8.57;;;24.20;96.80;;;;;;3513679;40;20917;-58
2021/07/06 09:29:01;;;;;;;8.30;7.90;;;24.20;96.90;;;;;;3509217;40;20648;-59
2021/07/06 09:31:31;;;;;;;8.33;8.03;;;24.20;96.90;;;;;;3513676;40;20613;-58
2021/07/06 09:34:02;;;;;;;8.10;7.80;;;24.20;97.00;;;;;;3513206;40;20478;-58
2021/07/06 09:36:34;;;;;;;9.07;8.77;;;24.20;97.00;;;;;;3503223;40;20701;-59
2021/07/06 09:39:09;;;;;;;8.67;8.37;;;24.20;97.10;;;;;;3513109;40;20475;-57
2021/07/06 09:41:38;;;;;;;7.70;7.50;;;24.30;97.30;;;;;;3514590;40;20477;-58
2021/07/06 09:44:19;;;;;;;8.23;8.03;;;24.20;97.30;;;;;;3507469;40;20569;-58
2021/07/06 09:46:48;;;;;;;8.20;8.00;;;24.20;97.40;;;;;;3512992;40;20497;-58
2021/07/06 09:49:20;;;;;;;7.83;7.50;;;24.30;97.50;;;;;;3511926;40;20495;-58
2021/07/06 09:51:49;;;;;;;8.70;8.40;;;24.20;97.50;;;;;;3517453;40;20538;-58
2021/07/06 09:54:29;;;;;;;8.10;7.80;;;24.30;97.60;;;;;;3517897;40;20490;-56
2021/07/06 09:57:22;;;;;;;8.80;8.40;;;24.30;97.60;;;;;;3507431;40;20560;-58
2021/07/06 10:00:05;;;;;;;8.30;8.00;;;24.30;97.50;;;;;;3515941;40;20478;-59
2021/07/06 10:02:45;;;;;;;8.87;8.40;;;24.30;97.60;;;;;;3499380;40;20557;-58
2021/07/06 10:05:16;;;;;;;9.00;8.70;;;24.20;97.50;;;;;;3497957;40;20551;-57
2021/07/06 10:07:46;;;;;;;8.67;8.30;;;24.20;97.50;;;;;;3492334;40;20483;-59
2021/07/06 10:10:15;;;;;;;8.70;8.30;;;24.20;97.60;;;;;;3496475;40;20455;-58
2021/07/06 10:12:45;;;;;;;8.53;8.23;;;24.20;97.60;;;;;;3487789;40;20475;-59
2021/07/06 10:15:15;;;;;;;9.40;8.90;;;24.20;97.60;;;;;;3514525;40;20543;-58
2021/07/06 10:17:43;;;;;;;8.60;8.30;;;24.20;97.60;;;;;;3518035;40;20486;-59
2021/07/06 10:20:15;;;;;;;8.80;8.40;;;24.20;97.60;;;;;;3518383;40;20458;-58
2021/07/06 10:22:45;;;;;;;9.43;8.93;;;24.20;97.60;;;;;;3517050;40;20466;-57
2021/07/06 10:25:14;;;;;;;8.60;8.20;;;24.20;97.60;;;;;;3514623;40;20831;-58
2021/07/06 10:27:45;;;;;;;8.80;8.40;;;24.20;97.60;;;;;;3517930;40;20482;-59
2021/07/06 10:30:16;;;;;;;9.00;8.60;;;24.20;97.60;;;;;;3508206;40;20479;-58
2021/07/06 10:32:49;;;;;;;9.13;8.67;;;24.20;97.60;;;;;;3514045;40;20491;-59
2021/07/06 10:35:20;;;;;;;9.60;9.20;;;24.20;97.60;;;;;;3515024;40;20925;-58
2021/07/06 10:37:49;;;;;;;10.30;9.90;;;24.20;97.60;;;;;;3515006;40;20486;-59
2021/07/06 10:40:21;;;;;;;9.80;9.10;;;24.20;97.70;;;;;;3516075;40;20466;-57
2021/07/06 10:42:51;;;;;;;9.80;9.40;;;24.20;97.70;;;;;;3515529;40;20465;-59
2021/07/06 10:45:21;;;;;;;9.23;8.83;;;24.20;97.70;;;;;;3515515;40;21274;-57
2021/07/06 10:47:51;;;;;;;8.90;8.60;;;24.20;97.80;;;;;;3513082;40;20478;-58
2021/07/06 10:50:44;;;;;;;9.10;8.60;;;24.20;97.80;;;;;;3512956;40;20585;-57
2021/07/06 10:53:20;;;;;;;9.50;9.10;;;24.20;97.80;;;;;;3515948;40;20473;-57
2021/07/06 10:56:05;;;;;;;9.40;9.00;;;24.20;97.80;;;;;;3513946;40;20537;-59
2021/07/06 10:58:53;;;;;;;8.97;8.67;;;24.20;97.80;;;;;;3519262;40;21117;-60
2021/07/06 11:02:00;;;;;;;9.73;9.23;;;24.20;97.80;;;;;;3518179;40;20463;-60
2021/07/06 11:04:56;;;;;;;10.00;9.40;;;24.20;97.90;;;;;;3519058;40;21196;-60
2021/07/06 11:07:48;;;;;;;9.70;9.30;;;24.20;97.90;;;;;;3516675;40;20474;-60
2021/07/06 11:10:19;;;;;;;9.77;9.27;;;24.20;97.90;;;;;;3517016;40;20462;-59
2021/07/06 11:12:51;;;;;;;9.30;8.90;;;24.20;97.90;;;;;;3511258;40;20549;-59
2021/07/06 11:15:30;;;;;;;10.70;10.20;;;24.20;98.00;;;;;;3511625;40;20487;-60
2021/07/06 11:18:04;;;;;;;10.00;9.47;;;24.20;98.00;;;;;;3513558;40;20727;-59
2021/07/06 11:20:37;;;;;;;10.00;9.50;;;24.20;98.00;;;;;;3515546;40;20482;-59
2021/07/06 11:23:09;;;;;;;9.77;9.37;;;24.20;98.00;;;;;;3516157;40;20467;-60
2021/07/06 11:25:43;;;;;;;9.90;9.50;;;24.20;98.00;;;;;;3516845;40;20462;-59
2021/07/06 11:28:13;;;;;;;10.67;10.17;;;24.20;98.00;;;;;;3514124;40;20477;-60
2021/07/06 11:30:47;;;;;;;10.20;9.80;;;24.20;98.00;;;;;;3517587;40;20561;-60
2021/07/06 11:33:18;;;;;;;10.40;9.90;;;24.20;98.00;;;;;;3515863;40;20560;-59
2021/07/06 11:35:48;;;;;;;9.80;9.30;;;24.20;98.00;;;;;;3515748;40;20483;-59
2021/07/06 11:38:17;;;;;;;9.87;9.47;;;24.20;98.30;;;;;;3518573;40;20462;-60
2021/07/06 11:40:53;;;;;;;10.00;9.60;;;24.20;98.00;;;;;;3517456;40;20492;-59
2021/07/06 11:43:22;;;;;;;10.20;9.80;;;24.20;98.00;;;;;;3517551;40;20459;-60
2021/07/06 11:45:50;;;;;;;10.50;10.10;;;24.20;98.00;;;;;;3515101;40;20486;-59
2021/07/06 11:48:20;;;;;;;10.27;9.87;;;24.20;98.00;;;;;;3514942;40;20913;-60
2021/07/06 11:50:49;;;;;;;9.60;9.30;;;24.20;97.90;;;;;;3516227;40;20466;-60
2021/07/06 11:53:25;;;;;;;9.40;9.10;;;24.20;97.90;;;;;;3517266;40;20462;-60
2021/07/06 11:55:55;;;;;;;9.63;9.30;;;24.20;97.90;;;;;;3515427;40;21025;-60
2021/07/06 11:58:40;;;;;;;9.40;9.00;;;24.20;97.90;;;;;;3517933;40;20466;-60
2021/07/06 12:01:11;;;;;;;10.03;9.63;;;24.20;97.90;;;;;;3509430;40;20498;-58
2021/07/06 12:03:39;;;;;;;9.30;9.00;;;24.20;97.80;;;;;;3496627;40;20563;-57
2021/07/06 12:06:09;;;;;;;9.63;9.23;;;24.20;97.80;;;;;;3514399;40;20478;-57
2021/07/06 12:08:38;;;;;;;9.60;9.20;;;24.20;97.80;;;;;;3516203;40;20542;-57
2021/07/06 12:11:09;;;;;;;9.53;9.03;;;24.20;97.80;;;;;;3515335;40;20486;-55
2021/07/06 12:13:45;;;;;;;8.60;8.30;;;24.20;97.80;;;;;;3513216;40;20495;-60
2021/07/06 12:16:18;;;;;;;9.57;9.20;;;24.20;97.80;;;;;;3501235;40;20570;-60
2021/07/06 12:18:54;;;;;;;9.30;8.90;;;24.20;98.10;;;;;;3500368;40;20478;-57
2021/07/06 12:21:25;;;;;;;9.90;9.33;;;24.20;97.80;;;;;;3502166;40;21003;-58
2021/07/06 12:23:55;;;;;;;8.57;8.27;;;24.20;97.70;;;;;;3507377;40;20483;-59
2021/07/06 12:26:28;;;;;;;9.17;8.77;;;24.20;97.70;;;;;;3497361;40;20809;-60
2021/07/06 12:28:55;;;;;;;9.03;8.73;;;24.20;97.70;;;;;;3500145;40;20471;-56
2021/07/06 12:31:31;;;;;;;9.20;8.90;;;24.20;97.70;;;;;;3509511;40;20471;-56
2021/07/06 12:34:14;;;;;;;9.23;8.80;;;24.20;97.70;;;;;;3505697;40;20476;-57
2021/07/06 12:36:43;;;;;;;9.47;9.17;;;24.20;97.70;;;;;;3485342;40;20485;-58
2021/07/06 12:39:13;;;;;;;8.73;8.43;;;24.20;97.70;;;;;;3506117;40;20510;-54
2021/07/06 12:41:45;;;;;;;9.13;8.70;;;24.20;97.70;;;;;;3505042;40;20456;-58
2021/07/06 12:44:13;;;;;;;9.30;9.00;;;24.20;97.80;;;;;;3506601;40;20471;-58
2021/07/06 12:46:41;;;;;;;9.43;9.03;;;24.20;97.80;;;;;;3506218;40;20492;-58
2021/07/06 12:49:09;;;;;;;9.13;8.83;;;24.20;97.80;;;;;;3505977;40;20686;-58
2021/07/06 12:51:37;;;;;;;9.13;8.83;;;24.20;97.80;;;;;;3496761;40;21172;-58
2021/07/06 12:54:06;;;;;;;9.00;8.70;;;24.20;97.80;;;;;;3510170;40;20471;-59
2021/07/06 12:56:34;;;;;;;8.87;8.57;;;24.20;97.80;;;;;;3512015;40;20467;-57